Time;durP1;ratioP1;P1;durP2;ratioP2;P2;SDS_P1;SDS_P2;PMS_P1;PMS_P2;Temp;Humidity;BMP_temperature;BMP_pressure;BME280_temperature;BME280_humidity;BME280_pressure;Samples;Min_cycle;Max_cycle;Signal;HPM_P1;HPM_P2
2022/12/26 00:01:34;;;;;;;16.40;9.68;;;11.60;87.10;;;;;;5019478;28;20053;-72
2022/12/26 00:04:01;;;;;;;15.68;10.25;;;11.60;87.10;;;;;;5043362;28;20096;-72
2022/12/26 00:06:29;;;;;;;15.70;9.25;;;11.60;87.10;;;;;;5053072;28;20121;-72
2022/12/26 00:08:55;;;;;;;18.48;11.23;;;11.60;87.10;;;;;;5055481;28;20389;-72
2022/12/26 00:11:22;;;;;;;17.23;10.25;;;11.60;87.10;;;;;;5079773;28;20022;-72
2022/12/26 00:13:58;;;;;;;19.15;10.75;;;11.60;87.10;;;;;;5052720;28;20064;-72
2022/12/26 00:16:26;;;;;;;18.05;10.60;;;11.60;87.20;;;;;;5080405;28;20426;-72
2022/12/26 00:18:52;;;;;;;18.48;10.85;;;11.60;87.20;;;;;;5035967;28;20184;-72
2022/12/26 00:21:22;;;;;;;22.23;12.90;;;11.60;87.20;;;;;;5090312;28;20444;-72
2022/12/26 00:23:48;;;;;;;21.13;12.52;;;11.60;87.20;;;;;;5051546;28;20079;-72
2022/12/26 00:26:20;;;;;;;25.02;13.45;;;11.60;87.20;;;;;;5084772;28;20416;-72
2022/12/26 00:28:49;;;;;;;23.17;11.85;;;11.60;87.20;;;;;;5086322;28;20025;-72
2022/12/26 00:31:17;;;;;;;23.17;12.90;;;11.60;87.20;;;;;;5049186;28;20063;-72
2022/12/26 00:33:43;;;;;;;24.60;12.57;;;11.60;87.20;;;;;;5065446;28;20021;-72
2022/12/26 00:36:21;;;;;;;24.77;13.25;;;11.60;87.30;;;;;;5051314;28;20030;-72
2022/12/26 00:38:49;;;;;;;26.42;13.07;;;11.50;87.20;;;;;;5037977;28;20033;-72
2022/12/26 00:41:15;;;;;;;25.00;12.73;;;11.60;87.30;;;;;;5090219;28;20033;-72
2022/12/26 00:43:41;;;;;;;25.75;13.80;;;11.60;87.20;;;;;;5037254;28;20112;-72
2022/12/26 00:46:08;;;;;;;26.40;13.02;;;11.60;87.30;;;;;;5046217;28;20113;-72
2022/12/26 00:48:34;;;;;;;23.23;13.60;;;11.60;87.20;;;;;;5044664;28;20434;-72
2022/12/26 00:51:00;;;;;;;26.02;13.05;;;11.60;87.20;;;;;;5087159;28;20056;-72
2022/12/26 00:53:26;;;;;;;23.92;13.40;;;11.60;87.90;;;;;;5081837;28;20112;-72
2022/12/26 00:55:53;;;;;;;25.33;13.93;;;11.60;87.20;;;;;;5055823;28;20036;-72
2022/12/26 00:58:19;;;;;;;26.08;14.02;;;11.60;87.20;;;;;;5065786;28;20071;-72
2022/12/26 01:00:45;;;;;;;25.30;13.10;;;11.60;87.20;;;;;;5050856;28;20033;-72
2022/12/26 01:03:12;;;;;;;26.40;14.30;;;11.60;87.20;;;;;;5045710;28;20564;-72
2022/12/26 01:05:42;;;;;;;23.92;13.75;;;11.60;87.20;;;;;;5084547;28;20102;-72
2022/12/26 01:08:08;;;;;;;23.20;14.03;;;11.60;87.30;;;;;;5024541;28;20025;-72
2022/12/26 01:10:35;;;;;;;23.95;14.07;;;11.60;87.20;;;;;;5057716;28;20035;-72
2022/12/26 01:13:01;;;;;;;24.50;13.73;;;11.60;87.20;;;;;;5046910;28;20026;-72
2022/12/26 01:15:27;;;;;;;21.63;13.13;;;11.70;87.20;;;;;;5039894;28;20035;-72
2022/12/26 01:17:53;;;;;;;22.92;13.55;;;11.70;87.30;;;;;;5083968;28;20021;-72
2022/12/26 01:20:18;;;;;;;22.92;13.27;;;11.70;87.30;;;;;;5037291;28;20067;-72
2022/12/26 01:22:44;;;;;;;23.92;14.25;;;11.70;87.30;;;;;;5037759;28;20496;-72
2022/12/26 01:25:11;;;;;;;24.83;14.38;;;11.70;87.30;;;;;;5040129;28;20469;-72
2022/12/26 01:27:36;;;;;;;22.40;14.45;;;11.70;87.30;;;;;;5045629;28;20323;-72
2022/12/26 01:30:03;;;;;;;24.92;15.05;;;11.70;87.30;;;;;;5051233;28;20047;-72
2022/12/26 01:32:29;;;;;;;23.08;14.13;;;11.70;87.20;;;;;;5099701;28;20341;-71
2022/12/26 01:34:55;;;;;;;22.58;14.07;;;11.70;87.20;;;;;;5060380;28;20033;-72
2022/12/26 01:37:22;;;;;;;21.98;14.23;;;11.70;87.20;;;;;;5025791;28;20036;-72
2022/12/26 01:39:48;;;;;;;21.83;13.15;;;11.70;87.20;;;;;;5045206;28;20036;-72
2022/12/26 01:42:16;;;;;;;23.05;13.48;;;11.70;87.20;;;;;;5052897;28;20435;-71
2022/12/26 01:45:00;;;;;;;23.17;13.98;;;11.70;87.20;;;;;;5057690;28;20462;-72
2022/12/26 01:47:39;;;;;;;19.92;12.60;;;11.70;87.10;;;;;;5055107;28;20111;-72
2022/12/26 01:50:24;;;;;;;20.95;12.95;;;11.70;87.10;;;;;;5056570;28;20033;-72
2022/12/26 01:52:50;;;;;;;19.75;12.48;;;11.70;87.70;;;;;;5052484;28;20022;-72
2022/12/26 01:55:19;;;;;;;21.05;11.98;;;11.70;87.10;;;;;;5044948;28;20446;-72
2022/12/26 01:57:48;;;;;;;20.88;12.65;;;11.70;87.10;;;;;;5055430;28;20106;-72
2022/12/26 02:00:17;;;;;;;21.08;13.18;;;11.70;87.10;;;;;;5059351;28;20030;-72
2022/12/26 02:05:33;;;;;;;21.27;12.43;;;11.70;87.10;;;;;;5036560;28;20108;-72
2022/12/26 02:08:22;;;;;;;18.58;12.77;;;11.60;87.00;;;;;;5016713;28;20112;-72
2022/12/26 02:11:14;;;;;;;19.75;12.48;;;11.70;87.00;;;;;;5051711;28;20354;-72
2022/12/26 02:13:40;;;;;;;18.67;12.77;;;11.60;86.90;;;;;;5039732;28;20026;-72
2022/12/26 02:16:09;;;;;;;19.55;12.63;;;11.60;87.00;;;;;;5022087;28;20029;-72
2022/12/26 02:18:35;;;;;;;20.67;12.98;;;11.60;87.00;;;;;;5038192;28;20022;-72
2022/12/26 02:21:20;;;;;;;18.90;12.35;;;11.60;87.00;;;;;;5035980;28;20087;-73
2022/12/26 02:24:04;;;;;;;19.00;12.68;;;11.60;86.90;;;;;;5019940;28;20038;-73
2022/12/26 02:27:07;;;;;;;19.95;13.05;;;11.60;87.00;;;;;;5063369;28;20458;-72
2022/12/26 02:29:54;;;;;;;19.98;12.77;;;11.60;86.90;;;;;;5066335;28;20385;-72
2022/12/26 02:32:35;;;;;;;19.73;12.75;;;11.60;86.90;;;;;;5045057;28;20044;-73
2022/12/26 02:35:48;;;;;;;19.30;12.57;;;11.60;86.90;;;;;;5042992;28;20122;-73
2022/12/26 02:38:22;;;;;;;20.30;12.73;;;11.60;86.90;;;;;;5046998;28;20455;-73
2022/12/26 02:41:06;;;;;;;20.33;13.20;;;11.60;87.00;;;;;;5032770;28;20084;-73
2022/12/26 02:43:53;;;;;;;20.05;12.77;;;11.60;87.00;;;;;;5037773;28;20029;-73
2022/12/26 03:13:13;;;;;;;23.23;14.80;;;11.60;86.90;;;;;;4966097;28;20037;-73
2022/12/26 03:18:35;;;;;;;21.88;15.63;;;11.50;86.90;;;;;;4974367;28;20118;-73
2022/12/26 03:21:04;;;;;;;21.77;14.40;;;11.50;86.90;;;;;;4962409;28;20121;-73
2022/12/26 03:23:31;;;;;;;20.05;13.75;;;11.50;86.90;;;;;;4956625;28;20046;-74
2022/12/26 03:28:51;;;;;;;20.55;14.23;;;11.50;86.80;;;;;;5016616;28;20044;-73
2022/12/26 03:31:17;;;;;;;19.83;14.23;;;11.50;86.80;;;;;;5034514;28;20088;-74
2022/12/26 03:37:08;;;;;;;20.58;14.13;;;11.50;86.70;;;;;;5034868;28;20061;-73
2022/12/26 04:21:04;;;;;;;24.30;17.85;;;11.40;86.40;;;;;;5052420;28;20033;-73
2022/12/26 04:46:24;;;;;;;22.50;16.20;;;11.50;86.30;;;;;;5028358;28;20581;-73
2022/12/26 04:51:38;;;;;;;24.52;17.00;;;11.50;86.30;;;;;;5038669;28;20483;-73
2022/12/26 04:54:04;;;;;;;22.77;17.10;;;11.50;86.30;;;;;;5036067;28;20034;-73
2022/12/26 04:56:30;;;;;;;23.50;16.10;;;11.50;86.30;;;;;;5032587;28;20041;-73
2022/12/26 04:58:58;;;;;;;21.58;16.02;;;11.50;86.30;;;;;;5027207;28;20339;-73
2022/12/26 05:09:51;;;;;;;20.95;15.43;;;11.50;86.30;;;;;;5034824;28;20462;-73
2022/12/26 05:12:18;;;;;;;20.38;15.32;;;11.40;86.20;;;;;;5054692;28;20052;-72
2022/12/26 05:14:43;;;;;;;20.77;15.57;;;11.40;86.20;;;;;;5043567;28;20064;-72
2022/12/26 05:31:01;;;;;;;17.00;11.88;;;11.40;86.10;;;;;;5027759;28;20068;-72
2022/12/26 05:36:18;;;;;;;14.38;10.93;;;11.40;86.00;;;;;;5024505;28;20080;-72
2022/12/26 05:38:44;;;;;;;14.80;10.88;;;11.40;85.90;;;;;;5019229;28;20068;-73
2022/12/26 05:41:10;;;;;;;14.15;10.75;;;11.40;86.60;;;;;;5016893;28;20418;-74
2022/12/26 05:43:36;;;;;;;13.77;10.82;;;11.40;85.90;;;;;;5049787;28;20029;-73
2022/12/26 05:46:03;;;;;;;12.95;9.95;;;11.40;85.80;;;;;;5033006;28;20025;-73
2022/12/26 05:48:29;;;;;;;12.95;9.18;;;11.40;85.70;;;;;;5044214;28;20028;-74
2022/12/26 05:51:02;;;;;;;12.68;8.45;;;11.40;85.70;;;;;;5037120;28;20057;-73
2022/12/26 05:53:29;;;;;;;11.45;8.18;;;11.40;85.70;;;;;;5041268;28;20424;-73
2022/12/26 05:56:00;;;;;;;12.73;8.27;;;11.40;85.70;;;;;;5020385;28;20045;-73
2022/12/26 05:58:30;;;;;;;11.18;7.82;;;11.30;85.60;;;;;;5049320;28;20029;-73
2022/12/26 06:01:17;;;;;;;10.32;6.80;;;11.30;85.60;;;;;;5015059;28;20034;-73
2022/12/26 06:03:56;;;;;;;9.10;5.93;;;11.30;85.50;;;;;;5041052;28;20029;-74
2022/12/26 06:06:23;;;;;;;9.93;5.82;;;11.30;85.60;;;;;;5026959;28;20124;-73
2022/12/26 06:08:51;;;;;;;10.65;6.13;;;11.30;85.50;;;;;;5069981;28;20359;-74
2022/12/26 06:11:18;;;;;;;10.70;6.35;;;11.30;85.50;;;;;;5025602;28;20034;-72
2022/12/26 06:13:46;;;;;;;9.63;5.18;;;11.30;85.50;;;;;;5034184;28;20028;-72
2022/12/26 06:16:14;;;;;;;8.73;5.20;;;11.30;85.50;;;;;;5042927;28;20556;-72
2022/12/26 06:18:40;;;;;;;8.90;5.00;;;11.30;85.40;;;;;;5047383;28;20029;-72
2022/12/26 06:21:13;;;;;;;8.88;4.97;;;11.20;85.30;;;;;;5040938;28;20041;-72
2022/12/26 06:23:40;;;;;;;;;;;11.30;85.40;;;;;;5037294;28;20128;-72
2022/12/26 06:26:08;;;;;;;8.13;4.45;;;11.20;85.30;;;;;;5028979;28;20377;-72
2022/12/26 06:28:35;;;;;;;8.88;5.20;;;11.20;85.40;;;;;;5034233;28;20030;-74
2022/12/26 06:31:05;;;;;;;9.85;5.18;;;11.20;85.30;;;;;;5032708;28;20505;-73
2022/12/26 06:33:32;;;;;;;8.10;4.47;;;11.20;85.30;;;;;;5034330;28;20017;-74
2022/12/26 06:36:09;;;;;;;8.55;5.07;;;11.20;85.40;;;;;;5035325;28;20029;-73
2022/12/26 06:38:36;;;;;;;8.38;4.75;;;11.20;85.30;;;;;;5017341;28;20079;-73
2022/12/26 06:41:08;;;;;;;8.13;5.38;;;11.20;85.30;;;;;;5033767;28;20025;-74
2022/12/26 06:43:34;;;;;;;8.45;4.68;;;11.20;85.30;;;;;;5033821;28;20029;-74
2022/12/26 06:46:02;;;;;;;9.13;4.85;;;11.20;85.30;;;;;;5064110;28;20030;-74
2022/12/26 06:48:28;;;;;;;8.35;4.63;;;11.20;85.30;;;;;;5048862;28;20031;-73
2022/12/26 06:50:54;;;;;;;8.65;4.93;;;11.20;85.30;;;;;;5039770;28;20128;-72
2022/12/26 06:53:21;;;;;;;9.70;6.10;;;11.10;85.20;;;;;;5054968;28;20032;-72
2022/12/26 06:55:47;;;;;;;9.23;4.68;;;11.10;85.20;;;;;;5028134;28;20030;-73
2022/12/26 06:58:14;;;;;;;8.73;5.20;;;11.10;85.30;;;;;;5049404;28;20040;-74
2022/12/26 07:00:39;;;;;;;8.15;5.07;;;11.10;85.90;;;;;;5048840;28;20033;-74
2022/12/26 07:03:05;;;;;;;9.95;5.40;;;11.10;85.30;;;;;;5035387;28;20026;-73
2022/12/26 07:05:31;;;;;;;8.63;5.13;;;11.10;85.30;;;;;;5033321;28;20029;-74
2022/12/26 07:07:56;;;;;;;8.90;5.32;;;11.10;85.30;;;;;;5033079;28;20045;-74
2022/12/26 07:10:22;;;;;;;9.48;5.35;;;11.10;85.20;;;;;;5032744;28;20080;-73
2022/12/26 07:12:48;;;;;;;11.23;5.88;;;11.10;85.20;;;;;;5032216;28;20029;-73
2022/12/26 07:15:14;;;;;;;10.30;5.90;;;11.10;85.20;;;;;;5077275;28;20312;-73
2022/12/26 07:17:40;;;;;;;10.23;6.20;;;11.10;85.10;;;;;;5036608;28;20048;-73
2022/12/26 07:20:06;;;;;;;10.93;6.28;;;11.10;85.10;;;;;;5035663;28;20033;-74
2022/12/26 07:22:33;;;;;;;9.25;5.88;;;11.10;85.10;;;;;;5033138;28;20534;-74
2022/12/26 07:24:59;;;;;;;10.20;6.07;;;11.10;85.30;;;;;;5029602;28;20065;-74
2022/12/26 07:27:25;;;;;;;10.15;5.80;;;11.10;85.10;;;;;;5030226;28;20033;-72
2022/12/26 07:29:51;;;;;;;8.93;5.50;;;11.10;85.10;;;;;;5031059;28;20246;-75
2022/12/26 07:32:19;;;;;;;9.20;5.93;;;11.10;85.10;;;;;;5031784;28;20116;-75
2022/12/26 07:34:46;;;;;;;9.75;5.57;;;11.10;85.10;;;;;;5030214;28;20022;-75
2022/12/26 07:37:11;;;;;;;9.27;5.45;;;11.10;85.00;;;;;;5064301;28;20369;-75
2022/12/26 07:39:37;;;;;;;10.68;6.07;;;11.20;85.00;;;;;;5031450;28;20032;-74
2022/12/26 07:42:05;;;;;;;9.55;5.38;;;11.10;84.90;;;;;;5031915;28;20526;-72
2022/12/26 07:44:32;;;;;;;10.55;5.97;;;11.20;85.00;;;;;;5039022;28;20030;-74
2022/12/26 07:46:59;;;;;;;10.32;6.45;;;11.10;84.90;;;;;;5018183;28;20137;-73
2022/12/26 07:49:25;;;;;;;10.73;6.13;;;11.10;84.90;;;;;;5020783;28;20032;-75
2022/12/26 07:51:51;;;;;;;9.98;5.85;;;11.10;84.90;;;;;;5005944;28;20025;-74
2022/12/26 07:54:18;;;;;;;9.70;5.60;;;11.10;84.80;;;;;;5032455;28;20033;-75
2022/12/26 07:56:44;;;;;;;9.18;5.70;;;11.10;84.90;;;;;;5019497;28;20034;-74
2022/12/26 07:59:16;;;;;;;8.68;5.15;;;11.10;84.90;;;;;;5020641;28;20026;-74
2022/12/26 08:01:42;;;;;;;9.35;5.90;;;11.10;84.80;;;;;;5031585;28;20056;-74
2022/12/26 08:04:12;;;;;;;9.50;5.38;;;11.10;84.90;;;;;;5034376;28;20030;-73
2022/12/26 08:06:38;;;;;;;9.75;5.68;;;11.10;84.90;;;;;;5037029;28;20029;-75
2022/12/26 08:09:04;;;;;;;8.57;4.85;;;11.10;84.80;;;;;;5026165;28;20451;-74
2022/12/26 08:11:33;;;;;;;7.70;4.50;;;11.10;84.80;;;;;;5027899;28;20017;-75
2022/12/26 08:14:00;;;;;;;7.97;4.75;;;11.10;84.80;;;;;;5026803;28;20053;-76
2022/12/26 08:16:26;;;;;;;8.25;4.25;;;11.10;84.80;;;;;;5053355;28;20047;-76
2022/12/26 08:18:53;;;;;;;8.57;4.10;;;11.10;84.70;;;;;;5028278;28;20353;-76
2022/12/26 08:21:19;;;;;;;7.88;4.28;;;11.20;84.60;;;;;;5035028;28;20036;-75
2022/12/26 08:23:47;;;;;;;7.75;3.72;;;11.20;84.60;;;;;;5013358;28;20029;-76
2022/12/26 08:26:19;;;;;;;8.80;4.20;;;11.20;84.60;;;;;;5021151;28;20442;-76
2022/12/26 08:28:45;;;;;;;7.63;4.18;;;11.20;84.50;;;;;;5019225;28;20025;-75
2022/12/26 08:31:12;;;;;;;7.80;3.88;;;11.30;84.40;;;;;;5051582;28;20145;-74
2022/12/26 08:33:39;;;;;;;6.50;3.45;;;11.30;84.30;;;;;;5023469;28;20455;-75
2022/12/26 08:36:08;;;;;;;8.20;3.78;;;11.40;84.20;;;;;;5026785;28;20111;-75
2022/12/26 08:38:34;;;;;;;8.43;3.80;;;11.50;84.00;;;;;;5031182;28;20037;-73
2022/12/26 08:41:00;;;;;;;6.35;3.08;;;11.50;83.90;;;;;;5035503;28;21623;-76
2022/12/26 08:43:26;;;;;;;7.28;3.40;;;11.50;83.90;;;;;;5002320;28;20036;-76
2022/12/26 08:46:06;;;;;;;6.15;3.17;;;11.50;83.90;;;;;;5007101;28;20030;-76
2022/12/26 08:48:33;;;;;;;6.30;3.25;;;11.50;84.00;;;;;;5035046;28;20036;-77
2022/12/26 08:51:02;;;;;;;7.55;3.33;;;11.50;84.10;;;;;;5029483;28;20033;-77
2022/12/26 08:53:31;;;;;;;8.98;3.80;;;11.50;84.00;;;;;;5040164;28;20014;-77
2022/12/26 08:55:57;;;;;;;7.43;3.47;;;11.50;84.00;;;;;;5025927;28;20039;-77
2022/12/26 08:58:24;;;;;;;5.57;2.70;;;11.60;84.00;;;;;;5014722;28;20037;-76
2022/12/26 09:00:50;;;;;;;6.72;3.55;;;11.60;83.90;;;;;;5040761;28;20449;-75
2022/12/26 09:03:16;;;;;;;9.13;2.78;;;11.70;83.80;;;;;;5042889;28;20373;-76
2022/12/26 09:05:42;;;;;;;6.32;3.10;;;11.80;83.70;;;;;;5020253;28;20029;-76
2022/12/26 09:08:09;;;;;;;7.13;3.15;;;11.80;83.50;;;;;;5023797;28;20045;-76
2022/12/26 09:10:35;;;;;;;6.40;3.08;;;11.80;83.50;;;;;;5034992;28;20331;-76
2022/12/26 09:13:00;;;;;;;6.85;2.72;;;11.80;83.50;;;;;;5026957;28;20032;-75
2022/12/26 09:15:26;;;;;;;5.65;2.67;;;11.80;83.50;;;;;;5019279;28;20026;-76
2022/12/26 09:17:52;;;;;;;6.30;2.58;;;11.80;83.50;;;;;;5034045;28;20025;-76
2022/12/26 09:20:18;;;;;;;4.97;2.20;;;11.80;83.40;;;;;;5018583;28;20321;-75
2022/12/26 09:22:49;;;;;;;7.43;2.78;;;11.90;83.40;;;;;;5019356;28;20030;-76
2022/12/26 09:25:15;;;;;;;7.28;2.63;;;11.90;83.30;;;;;;5031474;28;20060;-76
2022/12/26 09:27:41;;;;;;;6.45;2.47;;;11.90;83.20;;;;;;5027732;28;20033;-77
2022/12/26 09:30:08;;;;;;;6.63;2.25;;;11.90;83.10;;;;;;5032815;28;20022;-78
2022/12/26 09:32:34;;;;;;;6.43;2.08;;;11.90;83.10;;;;;;5013669;28;20034;-77
2022/12/26 09:35:01;;;;;;;4.97;1.95;;;11.90;83.20;;;;;;5004694;28;20052;-76
2022/12/26 09:37:26;;;;;;;8.52;2.50;;;11.90;83.10;;;;;;5002432;28;20082;-76
2022/12/26 09:39:52;;;;;;;7.50;2.65;;;12.00;83.10;;;;;;5031915;28;20119;-78
2022/12/26 09:42:20;;;;;;;4.75;2.30;;;12.00;83.00;;;;;;5031703;28;20029;-78
2022/12/26 09:45:13;;;;;;;6.38;2.97;;;12.00;83.60;;;;;;5012664;28;20034;-75
2022/12/26 09:48:01;;;;;;;6.50;2.13;;;12.00;82.90;;;;;;5031289;28;20033;-77
2022/12/26 09:50:30;;;;;;;7.95;2.30;;;11.90;83.50;;;;;;5040052;28;20022;-73
2022/12/26 09:53:01;;;;;;;4.53;2.35;;;11.90;82.90;;;;;;5024077;28;20078;-78
2022/12/26 09:55:46;;;;;;;;;;;11.90;83.00;;;;;;5023319;28;20036;-76
2022/12/26 09:58:27;;;;;;;4.88;2.20;;;11.90;83.10;;;;;;5025139;28;19916;-76
2022/12/26 10:01:24;;;;;;;4.30;2.00;;;11.80;83.10;;;;;;5021541;28;20040;-74
2022/12/26 10:03:55;;;;;;;4.60;1.98;;;11.80;83.30;;;;;;5021953;28;20033;-75
2022/12/26 10:06:25;;;;;;;6.07;2.35;;;11.70;83.40;;;;;;5018498;28;20117;-75
2022/12/26 10:08:56;;;;;;;7.03;2.47;;;11.70;83.40;;;;;;5027966;28;20052;-75
2022/12/26 10:11:31;;;;;;;;;;;11.70;83.50;;;;;;5023928;28;20049;-74
2022/12/26 10:14:35;;;;;;;6.07;2.03;;;11.70;83.60;;;;;;5029118;28;19970;-76
2022/12/26 10:17:17;;;;;;;6.85;2.28;;;11.60;83.70;;;;;;4993016;28;20053;-76
2022/12/26 10:20:13;;;;;;;5.30;2.47;;;11.60;83.80;;;;;;4992859;28;20113;-75
2022/12/26 10:22:53;;;;;;;6.30;1.95;;;11.60;84.00;;;;;;4960935;28;20050;-75
2022/12/26 10:25:55;;;;;;;4.57;2.13;;;11.60;84.00;;;;;;4993249;28;20054;-75
2022/12/26 10:28:54;;;;;;;7.57;2.13;;;11.60;84.00;;;;;;4995046;28;20514;-74
2022/12/26 10:31:34;;;;;;;7.40;2.08;;;11.60;84.10;;;;;;4991965;28;20082;-74
2022/12/26 10:34:35;;;;;;;5.47;1.92;;;11.60;84.20;;;;;;4991868;28;20038;-74
2022/12/26 10:37:16;;;;;;;5.25;1.50;;;11.60;84.20;;;;;;4979226;28;20379;-74
2022/12/26 10:39:50;;;;;;;4.47;2.00;;;11.60;84.10;;;;;;4993135;28;20419;-75
2022/12/26 10:42:37;;;;;;;6.28;2.10;;;11.60;84.60;;;;;;4987552;28;20094;-73
2022/12/26 10:45:35;;;;;;;6.53;1.80;;;11.60;83.90;;;;;;4999279;28;20034;-73
2022/12/26 10:48:01;;;;;;;8.00;2.33;;;11.60;84.00;;;;;;4977193;28;20099;-74
2022/12/26 10:50:31;;;;;;;7.28;2.25;;;11.60;84.70;;;;;;4976388;28;20045;-74
2022/12/26 10:52:59;;;;;;;8.50;1.92;;;11.60;84.00;;;;;;5005039;28;20106;-76
2022/12/26 10:55:31;;;;;;;7.70;2.40;;;11.60;84.00;;;;;;5029299;28;20022;-75
2022/12/26 10:58:04;;;;;;;6.13;2.00;;;11.50;84.00;;;;;;5022957;28;20088;-77
2022/12/26 11:00:30;;;;;;;10.60;2.33;;;11.50;83.80;;;;;;5025855;28;20033;-72
2022/12/26 11:03:09;;;;;;;9.20;2.45;;;11.50;83.70;;;;;;5034620;28;20104;-73
2022/12/26 11:05:45;;;;;;;13.02;2.20;;;11.40;83.30;;;;;;5033202;28;20037;-73
2022/12/26 11:08:16;;;;;;;10.07;2.30;;;11.40;83.10;;;;;;5023937;28;20018;-73
2022/12/26 11:10:50;;;;;;;10.25;1.90;;;11.30;82.80;;;;;;5061249;28;20106;-74
2022/12/26 11:13:22;;;;;;;10.55;2.50;;;11.30;82.60;;;;;;5033719;28;20029;-75
2022/12/26 11:15:50;;;;;;;9.73;2.22;;;11.20;82.50;;;;;;5025454;28;20025;-73
2022/12/26 11:18:26;;;;;;;8.75;2.63;;;11.30;82.40;;;;;;5052592;28;20470;-74
2022/12/26 11:20:52;;;;;;;8.85;1.95;;;11.30;82.00;;;;;;5033010;28;20037;-74
2022/12/26 11:23:31;;;;;;;9.57;2.00;;;11.30;81.90;;;;;;5048503;28;20033;-74
2022/12/26 11:25:59;;;;;;;8.00;1.77;;;11.30;81.50;;;;;;5063632;28;20045;-74
2022/12/26 11:28:35;;;;;;;6.88;1.63;;;11.30;81.40;;;;;;5033374;28;20358;-73
2022/12/26 11:31:05;;;;;;;7.57;1.73;;;11.30;81.10;;;;;;5042274;28;20084;-75
2022/12/26 11:33:44;;;;;;;7.47;2.20;;;11.30;81.00;;;;;;5033721;28;20026;-74
2022/12/26 11:36:19;;;;;;;5.80;1.83;;;11.30;80.70;;;;;;5059636;28;20029;-74
2022/12/26 11:38:55;;;;;;;10.05;2.22;;;11.30;80.40;;;;;;5065563;28;20029;-73
2022/12/26 11:41:34;;;;;;;9.00;2.10;;;11.30;79.90;;;;;;5033836;28;20030;-73
2022/12/26 11:44:09;;;;;;;7.72;2.22;;;11.30;79.80;;;;;;5030110;28;20037;-77
2022/12/26 11:46:52;;;;;;;7.07;1.90;;;11.30;79.40;;;;;;5034888;28;20025;-73
2022/12/26 11:49:25;;;;;;;6.90;2.10;;;11.30;79.10;;;;;;5015090;28;20420;-73
2022/12/26 11:51:51;;;;;;;6.63;1.40;;;11.20;79.20;;;;;;5033030;28;20034;-73
2022/12/26 11:54:26;;;;;;;8.73;2.17;;;11.20;79.20;;;;;;5029175;28;20076;-72
2022/12/26 11:57:16;;;;;;;7.85;2.10;;;11.20;78.90;;;;;;5037133;28;20116;-74
2022/12/26 11:59:41;;;;;;;5.85;1.85;;;11.20;78.70;;;;;;5030361;28;20111;-74
2022/12/26 12:02:16;;;;;;;7.43;1.45;;;11.10;78.70;;;;;;5033183;28;20072;-72
2022/12/26 12:04:45;;;;;;;5.93;1.42;;;11.10;78.40;;;;;;5032520;28;20025;-74
2022/12/26 12:07:22;;;;;;;4.97;1.40;;;11.10;78.30;;;;;;5034593;28;20473;-75
2022/12/26 12:10:13;;;;;;;7.63;1.73;;;11.00;78.00;;;;;;5016993;28;20048;-73
2022/12/26 12:13:03;;;;;;;5.82;1.50;;;11.00;77.70;;;;;;5044668;28;20041;-73
2022/12/26 12:15:39;;;;;;;5.85;1.58;;;11.00;77.80;;;;;;5043118;28;20084;-72
2022/12/26 12:18:28;;;;;;;6.70;1.55;;;11.00;77.80;;;;;;5042882;28;20069;-71
2022/12/26 12:20:54;;;;;;;9.07;1.70;;;11.00;77.70;;;;;;5036082;28;20040;-72
2022/12/26 12:23:29;;;;;;;6.97;1.40;;;10.90;77.60;;;;;;5047163;28;20420;-72
2022/12/26 12:26:08;;;;;;;6.28;2.03;;;10.90;77.40;;;;;;5033935;28;20466;-72
2022/12/26 12:28:48;;;;;;;4.95;1.50;;;10.90;77.20;;;;;;5042696;28;20080;-71
2022/12/26 12:31:36;;;;;;;5.20;1.63;;;10.90;77.10;;;;;;5039944;28;20025;-72
2022/12/26 12:34:23;;;;;;;6.13;1.92;;;10.80;76.90;;;;;;5044774;28;20104;-72
2022/12/26 12:37:04;;;;;;;7.65;1.35;;;10.90;76.80;;;;;;5051522;28;20079;-72
2022/12/26 12:39:48;;;;;;;9.10;1.70;;;10.90;76.80;;;;;;5044393;28;20033;-73
2022/12/26 12:42:23;;;;;;;6.50;1.35;;;10.90;76.80;;;;;;5051998;28;20029;-72
2022/12/26 12:45:21;;;;;;;7.00;1.50;;;10.90;76.30;;;;;;5031611;28;20069;-72
2022/12/26 12:47:55;;;;;;;5.35;1.30;;;10.90;76.30;;;;;;5026903;28;20133;-73
2022/12/26 12:50:49;;;;;;;8.07;1.63;;;10.80;76.20;;;;;;5043104;28;20022;-73
2022/12/26 12:53:29;;;;;;;3.47;1.20;;;10.90;76.10;;;;;;5035059;28;20506;-73
2022/12/26 12:56:12;;;;;;;6.22;1.45;;;10.90;76.00;;;;;;5037624;28;20346;-67
2022/12/26 12:59:11;;;;;;;4.75;1.38;;;10.90;76.60;;;;;;5037933;28;20132;-72
2022/12/26 13:01:50;;;;;;;5.70;1.65;;;10.90;75.80;;;;;;5043573;28;20029;-74
2022/12/26 13:04:28;;;;;;;6.78;1.73;;;10.90;75.80;;;;;;5056003;28;20021;-73
2022/12/26 13:06:58;;;;;;;4.68;1.27;;;10.80;75.70;;;;;;5048624;28;20417;-73
2022/12/26 13:09:54;;;;;;;6.28;1.63;;;10.80;75.70;;;;;;5056580;28;20029;-75
2022/12/26 13:12:34;;;;;;;5.60;1.60;;;10.80;75.60;;;;;;5034317;28;20029;-75
2022/12/26 13:15:18;;;;;;;5.63;1.20;;;10.80;76.30;;;;;;5015868;28;20022;-74
2022/12/26 13:18:13;;;;;;;4.60;1.40;;;10.80;75.50;;;;;;5038889;28;20048;-73
2022/12/26 13:20:46;;;;;;;3.90;1.38;;;10.80;75.40;;;;;;5048574;28;20091;-77
2022/12/26 13:26:21;;;;;;;10.13;1.75;;;10.70;75.40;;;;;;5036326;28;20041;-76
2022/12/26 13:29:11;;;;;;;5.28;1.08;;;10.70;75.60;;;;;;5037239;28;20438;-80
2022/12/26 13:31:41;;;;;;;5.68;1.33;;;10.70;75.40;;;;;;5032447;28;20034;-78
2022/12/26 13:34:18;;;;;;;6.35;1.30;;;10.60;75.40;;;;;;5034577;28;20092;-77
2022/12/26 13:37:01;;;;;;;6.43;1.90;;;10.60;75.30;;;;;;5033761;28;20037;-80
2022/12/26 13:39:34;;;;;;;5.20;1.40;;;10.70;75.10;;;;;;5049226;28;20339;-75
2022/12/26 13:44:49;;;;;;;6.60;1.40;;;10.60;75.00;;;;;;5037031;28;20038;-76
2022/12/26 13:47:36;;;;;;;6.55;1.50;;;10.60;74.80;;;;;;5033279;28;20057;-76
2022/12/26 13:50:42;;;;;;;6.13;1.65;;;10.60;74.60;;;;;;5037959;28;20087;-77
2022/12/26 13:53:36;;;;;;;4.68;1.38;;;10.60;74.50;;;;;;5023707;28;20029;-76
2022/12/26 13:56:24;;;;;;;6.72;1.35;;;10.50;74.30;;;;;;5040832;28;20060;-75
2022/12/26 13:59:02;;;;;;;4.38;1.52;;;10.50;74.20;;;;;;4992159;28;20352;-69
2022/12/26 14:01:47;;;;;;;10.73;1.45;;;10.50;74.10;;;;;;4975425;28;20448;-69
2022/12/26 14:04:43;;;;;;;3.08;1.42;;;10.50;73.70;;;;;;4995046;28;20687;-71
2022/12/26 14:07:23;;;;;;;4.78;1.10;;;10.50;73.60;;;;;;4993254;28;20337;-69
2022/12/26 14:10:13;;;;;;;5.50;1.45;;;10.40;73.50;;;;;;4993141;28;20471;-67
2022/12/26 14:13:07;;;;;;;5.97;1.17;;;10.40;73.20;;;;;;4963790;28;20113;-72
2022/12/26 14:16:01;;;;;;;5.88;1.52;;;10.40;72.90;;;;;;4983991;28;20380;-70
2022/12/26 14:18:29;;;;;;;4.25;1.30;;;10.40;72.70;;;;;;4970018;28;20030;-71
2022/12/26 14:21:28;;;;;;;9.45;1.73;;;10.30;72.70;;;;;;4982797;28;20508;-70
2022/12/26 14:24:09;;;;;;;6.75;1.77;;;10.30;72.50;;;;;;4973190;28;20387;-72
2022/12/26 14:26:54;;;;;;;4.75;1.70;;;10.30;72.50;;;;;;4994533;28;20046;-71
2022/12/26 14:29:33;;;;;;;5.13;1.83;;;10.20;72.40;;;;;;4984862;28;20109;-71
2022/12/26 14:32:27;;;;;;;6.93;1.40;;;10.20;72.30;;;;;;4995180;28;20085;-75
2022/12/26 14:35:13;;;;;;;6.15;1.33;;;10.20;72.20;;;;;;4995854;28;20049;-77
2022/12/26 14:38:02;;;;;;;5.47;1.40;;;10.10;72.00;;;;;;5038882;28;20029;-70
2022/12/26 14:40:35;;;;;;;4.57;1.35;;;10.10;72.00;;;;;;5070839;28;20029;-69
2022/12/26 14:43:12;;;;;;;8.05;1.70;;;10.10;72.20;;;;;;5039232;28;20079;-69
2022/12/26 14:45:50;;;;;;;7.45;1.50;;;10.10;72.00;;;;;;5037381;28;20103;-69
2022/12/26 14:48:15;;;;;;;7.40;1.50;;;10.10;71.80;;;;;;5033107;28;20052;-73
2022/12/26 14:50:41;;;;;;;5.88;1.40;;;10.00;71.80;;;;;;5033327;28;20029;-70
2022/12/26 14:53:19;;;;;;;6.13;1.75;;;10.00;71.80;;;;;;5032559;28;20093;-75
2022/12/26 14:55:47;;;;;;;6.13;1.60;;;10.00;71.70;;;;;;5042727;28;20033;-75
2022/12/26 14:58:30;;;;;;;3.25;1.38;;;10.00;71.80;;;;;;5040956;28;20017;-74
2022/12/26 15:01:11;;;;;;;7.60;1.88;;;9.90;71.60;;;;;;5035013;28;20053;-73
2022/12/26 15:03:49;;;;;;;5.43;1.60;;;10.00;71.60;;;;;;5047160;28;20057;-71
2022/12/26 15:06:18;;;;;;;6.15;1.73;;;9.90;71.60;;;;;;5035861;28;20045;-72
2022/12/26 15:09:13;;;;;;;6.18;1.52;;;9.90;72.30;;;;;;5064785;28;20081;-76
2022/12/26 15:12:12;;;;;;;6.57;1.70;;;9.90;71.40;;;;;;5017275;28;20030;-71
2022/12/26 15:15:15;;;;;;;6.43;1.45;;;9.90;71.30;;;;;;5037601;28;20029;-75
2022/12/26 15:18:08;;;;;;;6.20;1.90;;;9.90;71.30;;;;;;5032388;28;20163;-75
2022/12/26 15:21:05;;;;;;;8.05;1.90;;;9.80;71.30;;;;;;5045983;28;20034;-74
2022/12/26 15:23:46;;;;;;;10.35;2.38;;;9.80;71.30;;;;;;5030424;28;20105;-75
2022/12/26 15:26:50;;;;;;;5.88;2.08;;;9.80;71.50;;;;;;5047926;28;20045;-72
2022/12/26 15:29:42;;;;;;;10.10;2.08;;;9.80;71.30;;;;;;5031503;28;20056;-74
2022/12/26 15:32:23;;;;;;;5.13;1.40;;;9.80;71.20;;;;;;5039404;28;20472;-72